PWSweather.com
Personal Weather Stations
Station Observations
OLESAMETEO
Olesa De Montserrat, Olesa De MontserratES

Olesa De MontserratOlesa De MontserratES

Lat: 41.53982, Lon: 1.89508

Elevation: 110

Station Type: DAVIS VANTAGE VUE

http://olesameteo.net

Latest ConditionsUpdated 11:00:00 AM GMT+01:01 Tuesday, Oct 15, 2019
Currently Today's Max Today's Min Today's Average
Temperature 65.6°F18.7°C 65.8°F18.8°C 56.6°F13.7°C 60.5°F15.8°C
Dew Point 44.8°F7.1°C 64.0°F17.8°C 43.0°F6.1°C 48.4°F9.1°C
Winds 2.3 mph NE3.7 kmh NE 9.2 mph -14.8 kmh - - 2.7 mph 4.3 kmh
Wind Gusts 3.5 mph5.6 kmh 19.6 mph31.5 kmh - -
Humidity 47% 94% 47% 65%
Pressure 29.97 in1014.9 mb 29.97 in1014.9 mb 29.81 in1009.5 mb -
Precipitation - 0.24 in6.1 mm - -
Hour Temp Dew Point Humidity Winds Wind Gusts Pressure Precip Precip Rate Daily Precip Total
11:00 AM 65.6°F18.7°C 44.8°F7.1°C 47% 2.3 mph NE3.7 kmh NE 3.5 mph5.6 kmh 29.97 in1014.9 mb - 0.00 in0.0 mm 0.24 in6.1 mm
10:50 AM 64.8°F18.2°C 44.7°F7.1°C 48% Calm Calm 2.3 mph3.7 kmh 29.97 in1014.9 mb - 0.00 in0.0 mm 0.24 in6.1 mm
10:40 AM 63.8°F17.7°C 44.2°F6.8°C 49% 3.5 mph N5.6 kmh N 9.2 mph14.8 kmh 29.97 in1014.9 mb - 0.00 in0.0 mm 0.24 in6.1 mm
10:30 AM 63.4°F17.4°C 44.4°F6.9°C 50% 2.3 mph NW3.7 kmh NW 3.5 mph5.6 kmh 29.96 in1014.6 mb - 0.00 in0.0 mm 0.24 in6.1 mm
10:20 AM 63.1°F17.3°C 44.2°F6.8°C 50% 4.6 mph WNW7.4 kmh WNW 10.4 mph16.7 kmh 29.96 in1014.6 mb - 0.00 in0.0 mm 0.24 in6.1 mm
10:10 AM 62.5°F16.9°C 44.1°F6.7°C 51% 2.3 mph NW3.7 kmh NW 3.5 mph5.6 kmh 29.96 in1014.6 mb - 0.00 in0.0 mm 0.24 in6.1 mm
10:00 AM 62.2°F16.8°C 43.8°F6.6°C 51% 4.6 mph N7.4 kmh N 11.5 mph18.5 kmh 29.95 in1014.2 mb - 0.00 in0.0 mm 0.24 in6.1 mm
09:50 AM 61.5°F16.4°C 44.2°F6.8°C 53% 3.5 mph W5.6 kmh W 8.1 mph13.0 kmh 29.95 in1014.2 mb - 0.00 in0.0 mm 0.24 in6.1 mm
09:40 AM 60.9°F16.1°C 44.2°F6.8°C 54% 3.5 mph WSW5.6 kmh WSW 4.6 mph7.4 kmh 29.95 in1014.2 mb - 0.00 in0.0 mm 0.24 in6.1 mm
09:30 AM 60.8°F16.0°C 44.5°F6.9°C 55% 4.6 mph W7.4 kmh W 13.8 mph22.2 kmh 29.95 in1014.2 mb - 0.00 in0.0 mm 0.24 in6.1 mm
09:20 AM 60.5°F15.8°C 43.8°F6.6°C 54% 5.8 mph SW9.3 kmh SW 10.4 mph16.7 kmh 29.94 in1013.9 mb - 0.00 in0.0 mm 0.24 in6.1 mm
09:10 AM 60.4°F15.8°C 43.2°F6.2°C 53% 8.1 mph WSW13.0 kmh WSW 16.1 mph25.9 kmh 29.93 in1013.5 mb - 0.00 in0.0 mm 0.24 in6.1 mm
09:00 AM 60.2°F15.7°C 43.0°F6.1°C 53% 4.6 mph WSW7.4 kmh WSW 10.4 mph16.7 kmh 29.93 in1013.5 mb - 0.00 in0.0 mm 0.24 in6.1 mm
08:50 AM 59.4°F15.2°C 43.3°F6.3°C 55% 1.2 mph NW1.9 kmh NW 2.3 mph3.7 kmh 29.93 in1013.5 mb - 0.00 in0.0 mm 0.24 in6.1 mm
08:40 AM 59.1°F15.1°C 43.9°F6.6°C 57% 1.2 mph N1.9 kmh N 3.5 mph5.6 kmh 29.92 in1013.2 mb - 0.00 in0.0 mm 0.24 in6.1 mm
08:30 AM 58.5°F14.7°C 45.1°F7.3°C 61% Calm Calm 2.3 mph3.7 kmh 29.92 in1013.2 mb - 0.00 in0.0 mm 0.24 in6.1 mm
08:20 AM 58.1°F14.5°C 45.1°F7.3°C 62% Calm Calm 2.3 mph3.7 kmh 29.92 in1013.2 mb - 0.00 in0.0 mm 0.24 in6.1 mm
08:10 AM 57.1°F13.9°C 45.8°F7.7°C 66% 1.2 mph NNW1.9 kmh NNW 1.2 mph1.9 kmh 29.92 in1013.2 mb - 0.00 in0.0 mm 0.24 in6.1 mm
08:00 AM 56.8°F13.8°C 45.6°F7.6°C 66% Calm Calm 1.2 mph1.9 kmh 29.92 in1013.2 mb - 0.00 in0.0 mm 0.24 in6.1 mm
07:50 AM 56.7°F13.7°C 45.9°F7.7°C 67% 1.2 mph NW1.9 kmh NW 2.3 mph3.7 kmh 29.91 in1012.9 mb - 0.00 in0.0 mm 0.24 in6.1 mm
07:40 AM 56.6°F13.7°C 46.2°F7.9°C 68% Calm Calm 1.2 mph1.9 kmh 29.91 in1012.9 mb - 0.00 in0.0 mm 0.24 in6.1 mm
07:30 AM 56.9°F13.8°C 46.4°F8.0°C 68% Calm Calm -- 29.91 in1012.9 mb - 0.00 in0.0 mm 0.24 in6.1 mm
07:20 AM 57.0°F13.9°C 46.2°F7.9°C 67% Calm Calm 1.2 mph1.9 kmh 29.90 in1012.5 mb - 0.00 in0.0 mm 0.24 in6.1 mm
07:10 AM 57.4°F14.1°C 46.1°F7.8°C 66% 2.3 mph NNE3.7 kmh NNE 4.6 mph7.4 kmh 29.89 in1012.2 mb - 0.00 in0.0 mm 0.24 in6.1 mm
07:00 AM 57.5°F14.2°C 45.8°F7.7°C 65% 2.3 mph N3.7 kmh N 6.9 mph11.1 kmh 29.88 in1011.9 mb - 0.00 in0.0 mm 0.24 in6.1 mm
06:50 AM 57.6°F14.2°C 46.3°F7.9°C 66% 3.5 mph WSW5.6 kmh WSW 5.8 mph9.3 kmh 29.88 in1011.9 mb - 0.00 in0.0 mm 0.24 in6.1 mm
06:40 AM 57.7°F14.3°C 46.4°F8.0°C 66% Calm Calm 2.3 mph3.7 kmh 29.88 in1011.9 mb - 0.00 in0.0 mm 0.24 in6.1 mm
06:30 AM 58.1°F14.5°C 46.4°F8.0°C 65% 2.3 mph N3.7 kmh N 3.5 mph5.6 kmh 29.88 in1011.9 mb - 0.00 in0.0 mm 0.24 in6.1 mm
06:20 AM 58.3°F14.6°C 46.1°F7.8°C 64% 2.3 mph SSW3.7 kmh SSW 3.5 mph5.6 kmh 29.87 in1011.5 mb - 0.00 in0.0 mm 0.24 in6.1 mm
06:10 AM 57.8°F14.3°C 46.5°F8.1°C 66% 1.2 mph N1.9 kmh N 3.5 mph5.6 kmh 29.86 in1011.2 mb - 0.00 in0.0 mm 0.24 in6.1 mm
06:00 AM 58.1°F14.5°C 46.4°F8.0°C 65% 2.3 mph N3.7 kmh N 2.3 mph3.7 kmh 29.86 in1011.2 mb - 0.00 in0.0 mm 0.24 in6.1 mm
05:50 AM 58.1°F14.5°C 46.8°F8.2°C 66% 1.2 mph NW1.9 kmh NW 3.5 mph5.6 kmh 29.86 in1011.2 mb - 0.00 in0.0 mm 0.24 in6.1 mm
05:40 AM 58.1°F14.5°C 46.8°F8.2°C 66% Calm Calm 1.2 mph1.9 kmh 29.85 in1010.8 mb - 0.00 in0.0 mm 0.24 in6.1 mm
05:30 AM 58.6°F14.8°C 46.9°F8.3°C 65% 1.2 mph S1.9 kmh S 2.3 mph3.7 kmh 29.85 in1010.8 mb - 0.00 in0.0 mm 0.24 in6.1 mm
05:20 AM 59.3°F15.2°C 46.7°F8.2°C 63% 4.6 mph W7.4 kmh W 10.4 mph16.7 kmh 29.85 in1010.8 mb - 0.00 in0.0 mm 0.24 in6.1 mm
05:10 AM 59.6°F15.3°C 46.6°F8.1°C 62% 4.6 mph NE7.4 kmh NE 10.4 mph16.7 kmh 29.85 in1010.8 mb - 0.00 in0.0 mm 0.24 in6.1 mm
05:00 AM 60.3°F15.7°C 46.8°F8.2°C 61% 1.2 mph NNE1.9 kmh NNE 4.6 mph7.4 kmh 29.85 in1010.8 mb - 0.00 in0.0 mm 0.24 in6.1 mm
04:50 AM 60.4°F15.8°C 46.4°F8.0°C 60% 4.6 mph NW7.4 kmh NW 11.5 mph18.5 kmh 29.84 in1010.5 mb - 0.00 in0.0 mm 0.24 in6.1 mm
04:40 AM 60.5°F15.8°C 46.1°F7.8°C 59% 2.3 mph S3.7 kmh S 8.1 mph13.0 kmh 29.84 in1010.5 mb - 0.00 in0.0 mm 0.24 in6.1 mm
04:30 AM 60.8°F16.0°C 46.4°F8.0°C 59% 1.2 mph S1.9 kmh S 9.2 mph14.8 kmh 29.83 in1010.2 mb - 0.00 in0.0 mm 0.24 in6.1 mm
04:20 AM 61.0°F16.1°C 45.7°F7.6°C 57% 6.9 mph WNW11.1 kmh WNW 13.8 mph22.2 kmh 29.83 in1010.2 mb - 0.00 in0.0 mm 0.24 in6.1 mm
04:10 AM 60.9°F16.1°C 46.9°F8.3°C 60% 4.6 mph NW7.4 kmh NW 8.1 mph13.0 kmh 29.83 in1010.2 mb - 0.00 in0.0 mm 0.24 in6.1 mm
04:00 AM 60.9°F16.1°C 46.9°F8.3°C 60% 4.6 mph W7.4 kmh W 19.6 mph31.5 kmh 29.84 in1010.5 mb - 0.00 in0.0 mm 0.24 in6.1 mm
03:50 AM 61.1°F16.2°C 47.1°F8.4°C 60% 3.5 mph N5.6 kmh N 8.1 mph13.0 kmh 29.84 in1010.5 mb - 0.00 in0.0 mm 0.24 in6.1 mm
03:40 AM 61.2°F16.2°C 47.2°F8.4°C 60% 3.5 mph NW5.6 kmh NW 10.4 mph16.7 kmh 29.84 in1010.5 mb - 0.00 in0.0 mm 0.24 in6.1 mm
03:20 AM 61.3°F16.3°C 47.7°F8.7°C 61% 9.2 mph NNW14.8 kmh NNW 15.0 mph24.1 kmh 29.83 in1010.2 mb - 0.00 in0.0 mm 0.24 in6.1 mm
03:10 AM 61.4°F16.3°C 47.8°F8.8°C 61% 6.9 mph N11.1 kmh N 9.2 mph14.8 kmh 29.83 in1010.2 mb - 0.00 in0.0 mm 0.24 in6.1 mm
03:00 AM 61.2°F16.2°C 47.6°F8.7°C 61% 8.1 mph NW13.0 kmh NW 13.8 mph22.2 kmh 29.83 in1010.2 mb - 0.00 in0.0 mm 0.24 in6.1 mm
02:50 AM 61.0°F16.1°C 47.9°F8.8°C 62% 5.8 mph 9.3 kmh 9.2 mph14.8 kmh 29.83 in1010.2 mb - 0.00 in0.0 mm 0.24 in6.1 mm
02:40 AM 60.8°F16.0°C 49.0°F9.4°C 65% 5.8 mph SW9.3 kmh SW 11.5 mph18.5 kmh 29.83 in1010.2 mb - 0.00 in0.0 mm 0.24 in6.1 mm
02:30 AM 61.0°F16.1°C 50.0°F10.0°C 67% 2.3 mph NW3.7 kmh NW 6.9 mph11.1 kmh 29.83 in1010.2 mb - 0.00 in0.0 mm 0.24 in6.1 mm
02:20 AM 61.3°F16.3°C 50.2°F10.1°C 67% 1.2 mph WSW1.9 kmh WSW 1.2 mph1.9 kmh 29.83 in1010.2 mb - 0.00 in0.0 mm 0.24 in6.1 mm
02:10 AM 61.1°F16.2°C 50.4°F10.2°C 68% 5.8 mph W9.3 kmh W 11.5 mph18.5 kmh 29.82 in1009.8 mb - 0.00 in0.0 mm 0.24 in6.1 mm
02:00 AM 60.8°F16.0°C 52.1°F11.2°C 73% 1.2 mph SW1.9 kmh SW 3.5 mph5.6 kmh 29.82 in1009.8 mb - 0.00 in0.0 mm 0.24 in6.1 mm
01:50 AM 60.1°F15.6°C 53.6°F12.0°C 79% 3.5 mph W5.6 kmh W 18.4 mph29.6 kmh 29.82 in1009.8 mb - 0.01 in0.3 mm 0.24 in6.1 mm
01:40 AM 59.9°F15.5°C 54.1°F12.3°C 81% 1.2 mph NW1.9 kmh NW 4.6 mph7.4 kmh 29.83 in1010.2 mb - 0.09 in2.3 mm 0.24 in6.1 mm
01:30 AM 60.4°F15.8°C 55.2°F12.9°C 83% Calm Calm 1.2 mph1.9 kmh 29.83 in1010.2 mb - 0.24 in6.1 mm 0.24 in6.1 mm
01:20 AM 61.3°F16.3°C 54.4°F12.4°C 78% 1.2 mph SE1.9 kmh SE 3.5 mph5.6 kmh 29.82 in1009.8 mb - 0.24 in6.1 mm 0.24 in6.1 mm
01:10 AM 61.7°F16.5°C 57.1°F13.9°C 85% 1.2 mph NNE1.9 kmh NNE -- 29.83 in1010.2 mb - 0.24 in6.1 mm 0.24 in6.1 mm
01:00 AM 61.6°F16.4°C 57.4°F14.1°C 86% 2.3 mph NNW3.7 kmh NNW 8.1 mph13.0 kmh 29.83 in1010.2 mb - 0.24 in6.1 mm 0.24 in6.1 mm
12:50 AM 61.7°F16.5°C 58.8°F14.9°C 90% 2.3 mph SW3.7 kmh SW 4.6 mph7.4 kmh 29.84 in1010.5 mb - 0.24 in6.1 mm 0.24 in6.1 mm
12:40 AM 63.9°F17.7°C 59.6°F15.3°C 86% 3.5 mph N5.6 kmh N 4.6 mph7.4 kmh 29.84 in1010.5 mb - 0.20 in5.1 mm 0.20 in5.1 mm
12:30 AM 65.7°F18.7°C 63.6°F17.6°C 93% Calm Calm 3.5 mph5.6 kmh 29.81 in1009.5 mb - 0.00 in0.0 mm 0.00 in0.0 mm
12:20 AM 65.3°F18.5°C 63.2°F17.3°C 93% Calm Calm 1.2 mph1.9 kmh 29.82 in1009.8 mb - 0.00 in0.0 mm 0.00 in0.0 mm
12:10 AM 65.6°F18.7°C 63.8°F17.7°C 94% Calm Calm -- 29.83 in1010.2 mb - 0.00 in0.0 mm 0.00 in0.0 mm
12:00 AM 65.8°F18.8°C 64.0°F17.8°C 94% Calm Calm -- 29.84 in1010.5 mb - 0.00 in0.0 mm 0.00 in0.0 mm